Time;durP1;ratioP1;P1;durP2;ratioP2;P2;SDS_P1;SDS_P2;PMS_P1;PMS_P2;Temp;Humidity;BMP_temperature;BMP_pressure;BME280_temperature;BME280_humidity;BME280_pressure;Samples;Min_cycle;Max_cycle;Signal;HPM_P1;HPM_P2
2021/11/09 00:02:09;;;;;;;12.73;5.85;;;12.10;99.20;;;;;;5077569;28;20385;-64
2021/11/09 00:04:39;;;;;;;12.70;5.65;;;12.10;99.20;;;;;;5070183;28;20129;-64
2021/11/09 00:07:23;;;;;;;11.85;6.38;;;12.10;99.20;;;;;;5053918;28;20029;-64
2021/11/09 00:09:57;;;;;;;15.07;6.75;;;12.10;99.20;;;;;;5059811;28;20089;-65
2021/11/09 00:12:29;;;;;;;14.18;6.18;;;12.10;99.20;;;;;;5052458;28;20481;-64
2021/11/09 00:14:57;;;;;;;12.85;5.85;;;12.10;99.20;;;;;;5060956;28;20109;-64
2021/11/09 00:17:23;;;;;;;13.10;6.35;;;12.00;99.30;;;;;;5071949;28;20039;-64
2021/11/09 00:19:48;;;;;;;15.23;6.13;;;12.00;99.30;;;;;;5069329;28;20024;-64
2021/11/09 00:22:14;;;;;;;15.88;6.80;;;12.10;99.30;;;;;;5072466;28;20028;-64
2021/11/09 00:24:39;;;;;;;11.65;6.50;;;12.00;99.30;;;;;;5071279;28;20028;-64
2021/11/09 00:27:05;;;;;;;15.93;6.15;;;12.10;99.40;;;;;;5072372;28;20028;-64
2021/11/09 00:29:30;;;;;;;14.45;7.85;;;12.10;99.40;;;;;;5061555;28;20036;-64
2021/11/09 00:31:56;;;;;;;14.18;6.18;;;12.00;99.30;;;;;;5052279;28;20040;-64
2021/11/09 00:34:21;;;;;;;15.35;6.22;;;12.00;99.30;;;;;;5055285;28;20047;-64
2021/11/09 00:36:47;;;;;;;13.10;5.80;;;12.10;99.50;;;;;;5052100;28;20048;-64
2021/11/09 00:39:13;;;;;;;12.85;5.68;;;12.00;99.30;;;;;;5059265;28;20028;-64
2021/11/09 00:41:39;;;;;;;13.18;5.80;;;12.00;99.40;;;;;;5072139;28;20054;-64
2021/11/09 00:44:05;;;;;;;11.50;5.90;;;12.00;99.40;;;;;;5069525;28;20024;-64
2021/11/09 00:46:30;;;;;;;10.63;5.40;;;12.00;99.40;;;;;;5066307;28;20538;-63
2021/11/09 00:48:56;;;;;;;17.00;6.07;;;12.00;99.40;;;;;;5051844;28;20068;-64
2021/11/09 00:51:21;;;;;;;10.07;6.22;;;12.00;99.40;;;;;;5077204;28;20028;-64
2021/11/09 00:53:47;;;;;;;12.07;6.07;;;12.00;99.50;;;;;;5066300;28;20086;-64
2021/11/09 00:56:13;;;;;;;11.52;6.13;;;12.00;99.50;;;;;;5051886;28;20512;-64
2021/11/09 00:58:39;;;;;;;12.48;5.97;;;12.00;99.50;;;;;;5054341;28;20028;-64
2021/11/09 01:01:05;;;;;;;9.30;5.60;;;12.00;99.50;;;;;;5053457;28;20166;-64
2021/11/09 01:03:30;;;;;;;9.82;5.95;;;12.00;99.50;;;;;;5065191;28;20123;-64
2021/11/09 01:05:56;;;;;;;11.43;5.25;;;12.10;99.50;;;;;;5054137;28;20025;-64
2021/11/09 01:08:22;;;;;;;8.48;5.70;;;12.10;99.50;;;;;;5060417;28;20047;-64
2021/11/09 01:10:51;;;;;;;13.38;6.50;;;12.10;99.50;;;;;;5076122;28;20177;-64
2021/11/09 01:13:18;;;;;;;11.70;6.32;;;12.00;99.50;;;;;;5078620;28;20037;-62
2021/11/09 01:15:49;;;;;;;9.77;5.70;;;12.00;99.50;;;;;;5079555;28;20085;-63
2021/11/09 01:18:18;;;;;;;13.05;6.00;;;12.10;99.50;;;;;;5090779;28;20039;-63
2021/11/09 01:20:44;;;;;;;11.05;5.35;;;12.10;99.50;;;;;;5067079;28;20032;-63
2021/11/09 01:23:10;;;;;;;11.00;5.50;;;12.00;99.50;;;;;;5051388;28;20021;-63
2021/11/09 01:25:35;;;;;;;8.70;5.32;;;12.00;99.60;;;;;;5075986;28;20032;-63
2021/11/09 01:28:02;;;;;;;10.80;5.88;;;12.00;99.60;;;;;;5080524;28;20419;-63
2021/11/09 01:30:28;;;;;;;11.07;5.63;;;12.00;99.60;;;;;;5054002;28;20125;-63
2021/11/09 01:32:53;;;;;;;10.60;5.30;;;12.00;99.60;;;;;;5051219;28;20137;-63
2021/11/09 01:35:20;;;;;;;7.70;5.40;;;12.00;99.60;;;;;;5067667;28;20031;-64
2021/11/09 01:37:47;;;;;;;9.95;5.53;;;12.00;99.60;;;;;;5071313;28;20488;-63
2021/11/09 01:40:13;;;;;;;11.52;6.13;;;12.00;99.60;;;;;;5055626;28;20059;-64
2021/11/09 01:42:39;;;;;;;9.80;5.22;;;12.00;99.60;;;;;;5050361;28;20115;-64
2021/11/09 01:45:08;;;;;;;8.98;5.65;;;12.10;99.70;;;;;;5060327;28;20485;-64
2021/11/09 01:47:33;;;;;;;10.27;5.75;;;12.10;99.70;;;;;;5051146;28;20032;-63
2021/11/09 01:50:00;;;;;;;9.55;5.50;;;12.00;99.70;;;;;;5051227;28;20238;-64
2021/11/09 01:52:27;;;;;;;11.00;5.47;;;12.10;99.70;;;;;;5066789;28;20045;-63
2021/11/09 01:54:53;;;;;;;9.52;5.18;;;12.10;99.70;;;;;;5061498;28;20136;-63
2021/11/09 01:57:18;;;;;;;10.15;5.50;;;12.10;99.70;;;;;;5051055;28;20602;-63
2021/11/09 01:59:44;;;;;;;9.05;4.82;;;12.10;99.70;;;;;;5055060;28;20112;-63
2021/11/09 02:02:10;;;;;;;7.97;4.82;;;12.00;99.70;;;;;;5055142;28;20021;-63
2021/11/09 02:04:35;;;;;;;7.25;4.55;;;12.00;99.80;;;;;;5062818;28;20039;-63
2021/11/09 02:07:01;;;;;;;6.95;3.95;;;12.00;99.80;;;;;;5054938;28;20029;-63
2021/11/09 02:09:28;;;;;;;9.13;4.60;;;12.00;99.80;;;;;;5072671;28;20077;-63
2021/11/09 02:11:53;;;;;;;6.57;4.28;;;12.00;99.80;;;;;;5066941;28;20037;-64
2021/11/09 02:14:19;;;;;;;9.15;4.65;;;12.10;99.80;;;;;;5055037;28;20029;-64
2021/11/09 02:16:45;;;;;;;7.97;4.10;;;12.10;99.70;;;;;;5067980;28;20041;-64
2021/11/09 02:19:11;;;;;;;8.52;4.45;;;12.10;99.70;;;;;;5073800;28;20078;-64
2021/11/09 02:21:37;;;;;;;7.70;4.50;;;12.10;99.70;;;;;;5066952;28;20104;-63
2021/11/09 02:24:02;;;;;;;6.75;3.67;;;12.10;99.70;;;;;;5062110;28;20021;-63
2021/11/09 02:26:29;;;;;;;5.60;3.60;;;12.10;99.70;;;;;;5056242;28;20138;-63
2021/11/09 02:28:58;;;;;;;8.70;3.75;;;12.10;99.70;;;;;;5059034;28;20032;-63
2021/11/09 02:31:26;;;;;;;6.55;3.60;;;12.10;99.70;;;;;;5054170;28;20036;-64
2021/11/09 02:33:51;;;;;;;6.60;4.03;;;12.10;99.70;;;;;;5073317;28;20032;-63
2021/11/09 02:36:18;;;;;;;8.50;4.65;;;12.10;99.70;;;;;;5094541;28;20024;-62
2021/11/09 02:38:45;;;;;;;4.90;3.67;;;12.10;99.70;;;;;;5075603;28;20062;-63
2021/11/09 02:41:11;;;;;;;7.95;3.60;;;12.10;99.70;;;;;;5073104;28;20026;-63
2021/11/09 02:43:37;;;;;;;7.30;4.25;;;12.10;99.80;;;;;;5062001;28;20127;-63
2021/11/09 02:48:42;;;;;;;9.00;4.00;;;12.10;99.70;;;;;;5055398;28;20028;-63
2021/11/09 02:51:54;;;;;;;8.70;5.05;;;12.10;99.70;;;;;;5066391;28;20277;-63
2021/11/09 02:54:10;;;;;;;5.85;4.13;;;12.10;99.80;;;;;;5066645;28;20127;-64
2021/11/09 02:56:44;;;;;;;11.32;4.97;;;12.00;99.90;;;;;;5073006;28;20036;-63
2021/11/09 02:59:57;;;;;;;7.57;4.45;;;12.10;99.80;;;;;;5057288;28;20033;-63
2021/11/09 03:02:05;;;;;;;8.02;4.70;;;12.00;99.80;;;;;;5052155;28;20033;-64
2021/11/09 03:04:49;;;;;;;8.65;4.63;;;12.00;99.80;;;;;;5074430;28;20115;-63
2021/11/09 03:09:59;;;;;;;9.40;5.32;;;12.00;99.80;;;;;;5054441;28;20033;-64
2021/11/09 03:12:37;;;;;;;9.43;5.05;;;12.10;99.90;;;;;;5053607;28;20065;-64
2021/11/09 03:15:07;;;;;;;10.05;5.50;;;12.10;99.90;;;;;;5053793;28;20100;-63
2021/11/09 03:17:44;;;;;;;11.15;5.10;;;12.10;99.90;;;;;;5053497;28;20521;-63
2021/11/09 03:20:17;;;;;;;12.32;5.57;;;12.00;99.90;;;;;;5053828;28;20033;-63
2021/11/09 03:47:06;;;;;;;9.88;5.43;;;12.00;99.90;;;;;;5057973;28;20111;-63
2021/11/09 03:49:35;;;;;;;12.30;6.32;;;12.00;99.90;;;;;;5056176;28;20029;-63
2021/11/09 03:52:10;;;;;;;12.10;6.00;;;12.10;99.90;;;;;;5052449;28;20029;-63
2021/11/09 03:54:36;;;;;;;12.90;5.25;;;12.00;99.90;;;;;;5069968;28;20040;-63
2021/11/09 03:57:15;;;;;;;14.73;5.93;;;12.00;99.90;;;;;;5069744;28;20135;-64
2021/11/09 04:00:05;;;;;;;12.88;5.68;;;12.00;99.90;;;;;;5072435;28;20041;-64
2021/11/09 04:02:47;;;;;;;13.95;5.97;;;12.00;99.90;;;;;;5071032;28;20024;-63
2021/11/09 04:05:16;;;;;;;12.68;5.95;;;12.00;99.90;;;;;;5072869;28;20025;-63
2021/11/09 04:07:56;;;;;;;12.15;6.35;;;12.00;99.90;;;;;;5073908;28;20045;-63
2021/11/09 04:13:25;;;;;;;13.07;5.88;;;12.00;99.90;;;;;;5043493;28;20049;-63
2021/11/09 04:16:07;;;;;;;17.98;5.85;;;12.00;99.90;;;;;;5052647;28;20625;-63
2021/11/09 04:18:54;;;;;;;14.95;6.68;;;12.00;99.90;;;;;;5052976;28;20056;-63
2021/11/09 04:21:34;;;;;;;13.80;6.70;;;12.00;99.80;;;;;;5052606;28;20028;-63
2021/11/09 04:27:02;;;;;;;13.98;6.65;;;12.00;99.80;;;;;;5054455;28;20115;-63
2021/11/09 04:32:21;;;;;;;15.32;6.60;;;11.90;99.80;;;;;;5055246;28;20047;-63
2021/11/09 04:35:28;;;;;;;10.70;6.30;;;11.90;99.90;;;;;;5072446;28;20445;-63
2021/11/09 04:51:43;;;;;;;13.70;7.50;;;11.70;99.90;;;;;;5072233;28;20451;-63
2021/11/09 05:10:25;;;;;;;18.95;6.75;;;11.80;99.90;;;;;;5070183;28;20436;-63
2021/11/09 05:12:50;;;;;;;16.13;6.97;;;11.70;99.90;;;;;;5068960;28;20401;-63
2021/11/09 05:15:16;;;;;;;16.55;6.53;;;11.80;99.90;;;;;;5071493;28;20029;-63
2021/11/09 05:17:41;;;;;;;11.32;6.72;;;11.80;99.90;;;;;;5070595;28;20074;-63
2021/11/09 05:20:07;;;;;;;19.60;7.55;;;11.80;99.90;;;;;;5071496;28;20035;-63
2021/11/09 05:22:33;;;;;;;17.45;7.07;;;11.80;99.90;;;;;;5062509;28;20029;-63
2021/11/09 05:24:59;;;;;;;12.93;7.07;;;11.80;99.90;;;;;;5051266;28;20151;-64
2021/11/09 05:27:27;;;;;;;17.20;7.38;;;11.80;99.90;;;;;;5050006;28;20023;-63
2021/11/09 05:29:55;;;;;;;13.98;7.00;;;11.80;99.90;;;;;;5051236;28;20096;-63
2021/11/09 05:32:21;;;;;;;19.77;8.20;;;11.80;99.90;;;;;;5051763;28;20040;-64
2021/11/09 05:34:47;;;;;;;12.93;6.53;;;11.80;99.90;;;;;;5054103;28;20025;-64
2021/11/09 05:37:15;;;;;;;13.40;6.97;;;11.80;99.90;;;;;;5055007;28;20032;-63
2021/11/09 05:39:52;;;;;;;15.02;8.18;;;11.80;99.90;;;;;;5055591;28;20033;-64
2021/11/09 05:42:18;;;;;;;18.63;7.00;;;11.70;99.90;;;;;;5060117;28;20427;-64
2021/11/09 05:44:43;;;;;;;20.23;8.77;;;11.80;99.90;;;;;;5075448;28;20029;-63
2021/11/09 05:47:10;;;;;;;16.45;7.75;;;11.80;99.90;;;;;;5059789;28;20039;-64
2021/11/09 05:49:36;;;;;;;12.20;7.97;;;11.70;99.90;;;;;;5075402;28;20801;-63
2021/11/09 05:52:03;;;;;;;19.20;8.63;;;11.80;99.90;;;;;;5083524;28;20028;-64
2021/11/09 05:54:29;;;;;;;18.10;7.28;;;11.80;99.90;;;;;;5079230;28;20060;-64
2021/11/09 05:56:54;;;;;;;16.30;8.32;;;11.80;99.90;;;;;;5073307;28;20021;-64
2021/11/09 05:59:20;;;;;;;18.40;7.40;;;11.80;99.90;;;;;;5055153;28;20025;-64
2021/11/09 06:01:47;;;;;;;19.05;9.25;;;11.80;99.90;;;;;;5060920;28;20025;-64
2021/11/09 06:04:13;;;;;;;17.38;8.45;;;11.80;99.90;;;;;;5072195;28;20028;-64
2021/11/09 06:06:39;;;;;;;17.75;8.52;;;11.90;99.90;;;;;;5071044;28;20032;-64
2021/11/09 06:09:05;;;;;;;15.07;7.80;;;11.90;99.90;;;;;;5055901;28;20040;-62
2021/11/09 06:11:30;;;;;;;13.50;7.55;;;11.90;99.90;;;;;;5066484;28;20040;-60
2021/11/09 06:13:56;;;;;;;20.15;9.05;;;11.90;99.90;;;;;;5058918;28;20031;-60
2021/11/09 06:16:22;;;;;;;18.38;8.18;;;11.90;99.90;;;;;;5055357;28;20025;-61
2021/11/09 06:18:47;;;;;;;16.40;8.35;;;11.90;99.90;;;;;;5055424;28;20483;-61
2021/11/09 06:21:13;;;;;;;16.30;7.93;;;11.80;99.90;;;;;;5058539;28;20029;-62
2021/11/09 06:23:38;;;;;;;15.55;7.70;;;11.90;99.90;;;;;;5065149;28;20021;-62
2021/11/09 06:26:04;;;;;;;15.25;7.97;;;11.90;99.90;;;;;;5060884;28;20035;-62
2021/11/09 06:28:30;;;;;;;17.77;9.45;;;11.90;99.90;;;;;;5055192;28;20029;-62
2021/11/09 06:30:56;;;;;;;18.33;8.70;;;11.90;99.90;;;;;;5056222;28;20021;-62
2021/11/09 06:33:24;;;;;;;19.80;8.98;;;11.90;99.90;;;;;;5066495;28;20044;-62
2021/11/09 06:35:51;;;;;;;19.30;9.13;;;11.80;99.90;;;;;;5057362;28;20021;-63
2021/11/09 06:38:18;;;;;;;17.52;9.35;;;11.90;99.90;;;;;;5060743;28;20059;-62
2021/11/09 06:40:43;;;;;;;20.27;10.00;;;11.80;99.90;;;;;;5055467;28;20017;-63
2021/11/09 06:43:09;;;;;;;15.02;7.80;;;11.80;99.90;;;;;;5053623;28;20060;-63
2021/11/09 06:45:35;;;;;;;14.35;8.23;;;11.80;99.90;;;;;;5052881;28;20441;-62
2021/11/09 06:48:02;;;;;;;15.98;8.30;;;11.90;99.90;;;;;;5062536;28;20078;-63
2021/11/09 06:50:28;;;;;;;14.85;8.02;;;11.80;99.90;;;;;;5061486;28;20027;-62
2021/11/09 06:52:53;;;;;;;19.23;8.38;;;11.80;99.90;;;;;;5054339;28;20041;-62
2021/11/09 06:55:19;;;;;;;15.35;7.80;;;11.90;99.90;;;;;;5060700;28;20037;-62
2021/11/09 06:57:45;;;;;;;14.80;8.50;;;11.90;99.90;;;;;;5060254;28;20032;-62
2021/11/09 07:00:17;;;;;;;14.85;8.02;;;11.90;99.90;;;;;;5062265;28;20070;-62
2021/11/09 07:02:43;;;;;;;16.75;8.05;;;11.90;99.90;;;;;;5053745;28;20470;-62
2021/11/09 07:05:09;;;;;;;14.75;7.60;;;11.90;99.90;;;;;;5062717;28;20104;-62
2021/11/09 07:07:35;;;;;;;15.05;7.35;;;11.90;99.90;;;;;;5059222;28;20108;-62
2021/11/09 07:10:02;;;;;;;19.05;8.95;;;11.90;99.90;;;;;;5070712;28;20024;-62
2021/11/09 07:12:28;;;;;;;15.90;8.50;;;12.00;99.90;;;;;;5059517;28;20055;-62
2021/11/09 07:14:53;;;;;;;15.38;8.63;;;11.90;99.90;;;;;;5059889;28;20443;-62
2021/11/09 07:17:19;;;;;;;16.70;8.55;;;11.90;99.90;;;;;;5065421;28;20081;-62
2021/11/09 07:19:49;;;;;;;19.02;8.57;;;11.90;99.90;;;;;;5053787;28;20033;-62
2021/11/09 07:22:15;;;;;;;16.30;8.68;;;12.00;99.90;;;;;;5056400;28;20083;-62
2021/11/09 07:24:41;;;;;;;12.85;8.10;;;11.90;99.90;;;;;;5058471;28;20029;-62
2021/11/09 07:27:07;;;;;;;15.45;8.43;;;12.00;99.90;;;;;;5055945;28;20025;-63
2021/11/09 07:29:32;;;;;;;13.05;8.50;;;12.00;99.90;;;;;;5055273;28;20024;-63
2021/11/09 07:31:58;;;;;;;15.13;8.20;;;12.00;99.90;;;;;;5053741;28;20058;-63
2021/11/09 07:34:23;;;;;;;14.85;8.27;;;12.00;99.80;;;;;;5054397;28;20477;-62
2021/11/09 07:36:49;;;;;;;14.10;7.90;;;12.00;99.80;;;;;;5052654;28;20039;-63
2021/11/09 07:39:14;;;;;;;14.93;7.82;;;12.10;99.80;;;;;;5059908;28;20252;-62
2021/11/09 07:41:40;;;;;;;18.45;8.25;;;12.10;99.70;;;;;;5058720;28;20028;-63
2021/11/09 07:44:08;;;;;;;16.15;8.70;;;12.10;99.60;;;;;;5072635;28;20032;-63
2021/11/09 07:46:34;;;;;;;19.00;7.90;;;12.10;99.60;;;;;;5091206;28;20024;-63
2021/11/09 07:49:01;;;;;;;14.52;7.88;;;12.10;99.60;;;;;;5071601;28;20492;-63
2021/11/09 07:51:27;;;;;;;21.38;8.10;;;12.10;99.50;;;;;;5073186;28;20064;-63
2021/11/09 07:53:54;;;;;;;20.70;8.88;;;12.20;99.50;;;;;;5055798;28;20463;-62
2021/11/09 07:56:22;;;;;;;16.33;8.50;;;12.20;99.50;;;;;;5059086;28;20028;-64
2021/11/09 08:01:22;;;;;;;16.15;8.30;;;12.20;99.50;;;;;;5060588;28;20021;-64
2021/11/09 08:04:01;;;;;;;20.60;8.05;;;12.30;99.50;;;;;;5053209;28;20512;-63
2021/11/09 08:06:30;;;;;;;18.25;7.45;;;12.30;99.40;;;;;;5052480;28;20094;-63
2021/11/09 08:09:05;;;;;;;14.90;6.72;;;12.30;99.50;;;;;;5056480;28;20377;-64
2021/11/09 08:11:35;;;;;;;14.27;7.35;;;12.30;99.40;;;;;;5067693;28;20029;-64
2021/11/09 08:14:00;;;;;;;17.60;8.15;;;12.30;99.40;;;;;;5067173;28;20035;-63
2021/11/09 08:16:26;;;;;;;15.82;7.88;;;12.40;99.30;;;;;;5052218;28;20017;-63
2021/11/09 08:18:51;;;;;;;13.95;7.30;;;12.40;99.30;;;;;;5058684;28;20077;-64
2021/11/09 08:21:17;;;;;;;17.75;8.50;;;12.40;99.30;;;;;;5072173;28;20025;-63
2021/11/09 08:23:48;;;;;;;17.52;8.90;;;12.30;99.20;;;;;;5054669;28;20078;-64
2021/11/09 08:26:14;;;;;;;15.52;8.68;;;12.30;99.20;;;;;;5052168;28;20036;-64
2021/11/09 08:28:40;;;;;;;19.42;9.38;;;12.30;99.30;;;;;;5050806;28;20044;-64
2021/11/09 08:31:11;;;;;;;18.83;8.80;;;12.30;99.30;;;;;;5051628;28;20025;-64
2021/11/09 08:33:36;;;;;;;16.80;9.05;;;12.30;99.40;;;;;;5052161;28;20511;-65
2021/11/09 08:36:09;;;;;;;21.52;9.23;;;12.30;99.40;;;;;;5051875;28;20104;-64
2021/11/09 08:38:36;;;;;;;12.73;8.18;;;12.30;99.30;;;;;;5067036;28;20067;-64
2021/11/09 08:41:02;;;;;;;12.93;7.78;;;12.40;99.20;;;;;;5064602;28;20025;-64
2021/11/09 08:43:32;;;;;;;17.30;8.23;;;12.40;99.20;;;;;;5050940;28;20477;-64
2021/11/09 08:46:06;;;;;;;18.92;8.70;;;12.40;99.10;;;;;;5059278;28;20104;-64
2021/11/09 08:48:37;;;;;;;16.33;8.13;;;12.40;99.10;;;;;;5070981;28;20086;-64
2021/11/09 08:51:08;;;;;;;18.80;9.02;;;12.50;99.00;;;;;;5071439;28;20029;-64
2021/11/09 08:53:39;;;;;;;16.10;8.93;;;12.40;99.00;;;;;;5059445;28;20033;-64
2021/11/09 08:56:18;;;;;;;16.05;9.57;;;12.40;99.10;;;;;;5051584;28;20041;-64
2021/11/09 09:06:33;;;;;;;16.90;9.98;;;12.40;99.40;;;;;;5062754;28;20100;-64
2021/11/09 09:09:01;;;;;;;20.48;9.98;;;12.40;99.20;;;;;;5062178;28;20029;-64
2021/11/09 09:11:27;;;;;;;21.83;9.07;;;12.40;99.20;;;;;;5051310;28;20104;-64
2021/11/09 09:13:52;;;;;;;16.95;9.30;;;12.40;99.10;;;;;;5051366;28;20537;-64
2021/11/09 09:16:18;;;;;;;19.42;8.80;;;12.40;99.20;;;;;;5049921;28;20024;-64
2021/11/09 09:18:44;;;;;;;18.55;9.18;;;12.50;99.10;;;;;;5050984;28;20429;-64
2021/11/09 09:21:18;;;;;;;16.92;9.68;;;12.60;99.10;;;;;;5051267;28;20028;-64
2021/11/09 09:23:52;;;;;;;15.40;9.10;;;12.60;99.00;;;;;;5067933;28;20033;-64
2021/11/09 09:26:33;;;;;;;19.88;9.13;;;12.60;99.00;;;;;;5065699;28;20307;-64
2021/11/09 09:32:07;;;;;;;15.32;9.00;;;12.70;98.90;;;;;;5050876;28;20048;-64
2021/11/09 09:52:10;;;;;;;13.73;7.93;;;12.80;98.80;;;;;;5056433;28;20040;-64
2021/11/09 09:54:06;;;;;;;19.00;8.88;;;13.00;98.50;;;;;;5069217;28;20049;-64
2021/11/09 09:56:45;;;;;;;15.32;9.23;;;13.00;98.40;;;;;;5070934;28;20031;-64
2021/11/09 09:59:11;;;;;;;18.10;9.32;;;13.10;98.40;;;;;;5051670;28;20044;-63
2021/11/09 10:01:43;;;;;;;21.55;9.82;;;13.00;98.30;;;;;;5050515;28;20482;-64
2021/11/09 10:04:28;;;;;;;23.73;9.65;;;13.00;98.30;;;;;;5054577;28;20032;-63
2021/11/09 10:06:54;;;;;;;17.30;8.73;;;13.00;98.30;;;;;;5065651;28;20025;-63
2021/11/09 10:09:34;;;;;;;17.33;8.38;;;13.10;98.10;;;;;;5050734;28;20058;-64
2021/11/09 10:12:34;;;;;;;15.68;8.55;;;13.20;98.00;;;;;;5050881;28;20488;-64
2021/11/09 10:15:05;;;;;;;13.98;8.32;;;13.10;97.90;;;;;;5050765;28;20156;-63
2021/11/09 10:17:31;;;;;;;11.77;7.93;;;13.10;97.80;;;;;;5056167;28;20036;-63
2021/11/09 10:19:59;;;;;;;15.73;8.32;;;13.20;97.70;;;;;;5072077;28;20021;-63
2021/11/09 10:22:31;;;;;;;16.35;9.43;;;13.20;97.60;;;;;;5065704;28;20107;-63
2021/11/09 10:25:03;;;;;;;15.15;8.10;;;13.20;97.60;;;;;;5054815;28;20033;-63
2021/11/09 10:27:31;;;;;;;17.30;8.05;;;13.20;97.60;;;;;;5060096;28;20539;-64
2021/11/09 10:29:58;;;;;;;14.38;7.80;;;13.20;97.60;;;;;;5074470;28;20032;-64
2021/11/09 10:32:27;;;;;;;13.00;7.20;;;13.20;97.60;;;;;;5067689;28;20039;-64
2021/11/09 10:34:54;;;;;;;13.93;7.50;;;13.30;97.60;;;;;;5054242;28;20444;-64
2021/11/09 10:37:25;;;;;;;13.27;8.45;;;13.30;97.50;;;;;;5052642;28;20025;-64
2021/11/09 10:39:57;;;;;;;13.90;7.45;;;13.30;97.40;;;;;;5056582;28;20031;-64
2021/11/09 10:42:25;;;;;;;;;;;13.40;97.40;;;;;;5072675;28;20041;-64
2021/11/09 10:45:02;;;;;;;12.02;6.68;;;13.40;97.60;;;;;;5074049;28;19991;-64
2021/11/09 10:47:33;;;;;;;15.25;7.20;;;13.40;97.40;;;;;;5067176;28;20440;-64
2021/11/09 10:50:04;;;;;;;12.65;6.50;;;13.40;97.30;;;;;;5061825;28;20471;-63
2021/11/09 10:52:36;;;;;;;15.80;6.57;;;13.50;97.20;;;;;;5055415;28;20056;-63
2021/11/09 10:55:10;;;;;;;11.93;6.30;;;13.50;97.10;;;;;;5052492;28;20402;-64
2021/11/09 10:57:55;;;;;;;14.93;5.55;;;13.60;97.20;;;;;;5053772;28;20037;-63
2021/11/09 11:03:48;;;;;;;12.23;5.40;;;13.70;97.00;;;;;;5004157;28;20122;-64
2021/11/09 11:06:21;;;;;;;11.05;6.25;;;13.80;96.80;;;;;;5007576;28;20092;-63
2021/11/09 11:08:58;;;;;;;9.25;4.93;;;13.90;96.70;;;;;;5038499;28;20036;-63
2021/11/09 11:11:26;;;;;;;9.93;5.07;;;13.90;96.50;;;;;;5052263;28;20548;-62
2021/11/09 11:13:54;;;;;;;13.52;5.22;;;14.00;96.40;;;;;;5055795;28;20041;-63
2021/11/09 11:16:21;;;;;;;10.55;5.93;;;14.10;96.40;;;;;;5052066;28;20033;-62
2021/11/09 11:18:51;;;;;;;16.55;5.72;;;14.10;96.20;;;;;;5057831;28;20024;-63
2021/11/09 11:21:22;;;;;;;12.02;4.85;;;14.20;96.10;;;;;;5054993;28;20630;-63
2021/11/09 11:23:48;;;;;;;10.07;5.40;;;14.20;95.90;;;;;;5052247;28;20025;-63
2021/11/09 11:26:16;;;;;;;13.45;5.55;;;14.20;95.90;;;;;;5054210;28;20025;-63
2021/11/09 11:28:44;;;;;;;8.13;5.38;;;14.10;95.90;;;;;;5056315;28;20036;-64
2021/11/09 11:31:10;;;;;;;7.30;5.00;;;14.10;95.80;;;;;;5056178;28;20484;-63
2021/11/09 11:33:37;;;;;;;8.32;4.70;;;14.10;95.80;;;;;;5053070;28;20132;-63
2021/11/09 11:36:03;;;;;;;8.85;3.92;;;14.10;95.80;;;;;;5060070;28;20036;-63
2021/11/09 11:38:31;;;;;;;7.07;4.35;;;14.20;95.40;;;;;;5053258;28;20122;-63
2021/11/09 11:40:59;;;;;;;9.80;4.78;;;14.20;95.30;;;;;;5067294;28;20021;-63
2021/11/09 11:43:42;;;;;;;6.72;3.38;;;14.20;95.10;;;;;;5052844;28;20033;-63
2021/11/09 11:46:09;;;;;;;8.00;4.05;;;14.20;95.10;;;;;;5060508;28;20028;-63
2021/11/09 11:49:09;;;;;;;7.90;3.78;;;14.30;94.80;;;;;;5062696;28;20029;-63
2021/11/09 11:51:46;;;;;;;9.82;3.90;;;14.30;94.80;;;;;;5057161;28;20056;-63
2021/11/09 11:54:16;;;;;;;8.45;3.35;;;14.30;94.80;;;;;;5055396;28;20051;-63
2021/11/09 11:56:51;;;;;;;9.77;4.22;;;14.30;94.40;;;;;;5059832;28;20028;-63
2021/11/09 11:59:23;;;;;;;6.03;3.30;;;14.40;94.20;;;;;;5053223;28;20499;-63
2021/11/09 12:01:52;;;;;;;5.47;3.08;;;14.40;93.90;;;;;;5058543;28;20029;-63
2021/11/09 12:04:51;;;;;;;8.70;2.88;;;14.40;93.70;;;;;;5053642;28;20089;-64
2021/11/09 12:07:41;;;;;;;6.35;2.72;;;14.40;93.70;;;;;;5054378;28;20099;-64
2021/11/09 12:10:08;;;;;;;6.88;2.45;;;14.40;93.30;;;;;;5055080;28;20124;-63
2021/11/09 12:12:35;;;;;;;5.72;2.85;;;14.30;93.30;;;;;;5051782;28;20043;-63
2021/11/09 12:15:08;;;;;;;3.85;2.20;;;14.30;93.20;;;;;;5052542;28;20021;-64
2021/11/09 12:17:39;;;;;;;5.55;2.30;;;14.30;92.90;;;;;;5053062;28;20117;-64
2021/11/09 12:20:16;;;;;;;6.70;2.58;;;14.30;92.80;;;;;;5052007;28;20061;-63
2021/11/09 12:22:50;;;;;;;5.70;2.53;;;14.30;92.70;;;;;;5052360;28;20032;-63
2021/11/09 12:25:22;;;;;;;8.27;3.53;;;14.30;92.60;;;;;;5055671;28;20051;-63
2021/11/09 12:27:54;;;;;;;7.07;3.20;;;14.20;92.60;;;;;;5053235;28;20029;-64
2021/11/09 12:30:35;;;;;;;8.93;3.08;;;14.30;92.60;;;;;;5058736;28;20397;-63
2021/11/09 12:33:15;;;;;;;6.82;3.33;;;14.30;92.60;;;;;;5064530;28;20069;-63
2021/11/09 12:35:51;;;;;;;7.55;3.60;;;14.30;92.60;;;;;;5054243;28;20025;-63
2021/11/09 12:38:20;;;;;;;5.88;2.83;;;14.40;92.60;;;;;;5059088;28;20120;-63
2021/11/09 12:40:49;;;;;;;6.72;2.80;;;14.40;92.50;;;;;;5058359;28;20555;-63
2021/11/09 12:43:16;;;;;;;7.53;3.65;;;14.40;92.50;;;;;;5057986;28;20037;-64
2021/11/09 12:46:06;;;;;;;10.38;3.17;;;14.40;92.50;;;;;;5053005;28;20056;-64
2021/11/09 12:48:48;;;;;;;6.88;3.28;;;14.40;92.60;;;;;;5058167;28;20025;-64
2021/11/09 12:51:14;;;;;;;8.32;3.28;;;14.40;92.50;;;;;;5055680;28;20024;-63
2021/11/09 12:53:46;;;;;;;9.70;3.35;;;14.40;92.60;;;;;;5052487;28;20052;-63
2021/11/09 12:56:54;;;;;;;5.78;2.97;;;14.40;92.60;;;;;;5051694;28;20029;-63
2021/11/09 13:02:24;;;;;;;9.73;3.08;;;14.40;92.60;;;;;;5021401;28;20048;-63
2021/11/09 13:04:56;;;;;;;6.47;3.70;;;14.40;92.70;;;;;;5052279;28;20041;-62
2021/11/09 13:07:32;;;;;;;6.55;2.80;;;14.30;92.80;;;;;;5051608;28;20032;-62
2021/11/09 13:10:11;;;;;;;8.40;3.60;;;14.30;92.80;;;;;;5052297;28;20032;-63
2021/11/09 13:12:38;;;;;;;6.22;2.72;;;14.40;93.10;;;;;;5058864;28;20041;-63
2021/11/09 13:15:08;;;;;;;6.65;2.88;;;14.40;92.80;;;;;;5050532;28;20040;-63
2021/11/09 13:17:35;;;;;;;8.90;2.90;;;14.40;92.70;;;;;;5054944;28;20033;-62
2021/11/09 13:20:18;;;;;;;8.32;3.53;;;14.40;92.50;;;;;;5053632;28;20477;-63
2021/11/09 13:22:54;;;;;;;5.57;2.78;;;14.40;92.40;;;;;;5058701;28;22094;-62
2021/11/09 13:25:28;;;;;;;3.60;2.35;;;14.30;92.30;;;;;;5056459;28;20033;-63
2021/11/09 13:27:54;;;;;;;5.30;2.00;;;14.30;92.20;;;;;;5058094;28;20032;-63
2021/11/09 13:30:24;;;;;;;7.15;3.15;;;14.20;92.00;;;;;;5054647;28;20048;-63
2021/11/09 13:32:54;;;;;;;6.15;2.30;;;14.20;91.90;;;;;;5055151;28;20039;-63
2021/11/09 13:35:28;;;;;;;5.00;3.00;;;14.20;91.70;;;;;;5056283;28;20021;-63
2021/11/09 13:38:07;;;;;;;5.50;2.00;;;14.10;91.80;;;;;;5060594;28;20047;-63
2021/11/09 13:40:32;;;;;;;4.50;2.00;;;14.10;91.60;;;;;;5059533;28;20033;-63
2021/11/09 13:43:01;;;;;;;6.13;2.20;;;14.00;91.60;;;;;;5052090;28;20036;-62
2021/11/09 13:45:27;;;;;;;4.88;2.33;;;14.00;91.50;;;;;;5063979;28;20024;-61
2021/11/09 13:47:53;;;;;;;3.88;1.90;;;14.00;91.50;;;;;;5063769;28;20391;-62
2021/11/09 13:50:18;;;;;;;4.32;2.40;;;13.90;91.70;;;;;;5053699;28;20385;-64
2021/11/09 13:52:46;;;;;;;4.50;2.10;;;13.90;91.60;;;;;;5055213;28;20503;-63
2021/11/09 13:55:18;;;;;;;7.38;2.47;;;13.90;91.60;;;;;;5052953;28;20041;-63
2021/11/09 13:57:44;;;;;;;4.90;2.47;;;13.90;91.50;;;;;;5053164;28;20111;-63
2021/11/09 14:00:30;;;;;;;8.02;2.85;;;13.80;91.50;;;;;;5056769;28;20592;-63
2021/11/09 14:03:29;;;;;;;7.10;2.60;;;13.70;91.50;;;;;;5059080;28;20123;-64
2021/11/09 14:06:33;;;;;;;9.00;2.92;;;13.70;91.70;;;;;;5061601;28;20032;-62
2021/11/09 14:09:18;;;;;;;7.18;2.75;;;13.70;91.90;;;;;;5065829;28;20025;-62
2021/11/09 14:14:25;;;;;;;4.75;2.67;;;13.80;92.00;;;;;;5055497;28;20041;-63
2021/11/09 14:16:54;;;;;;;4.55;2.80;;;13.90;92.10;;;;;;5061764;28;20029;-63
2021/11/09 14:19:24;;;;;;;10.25;3.20;;;13.90;92.10;;;;;;5058705;28;20028;-63
2021/11/09 14:21:50;;;;;;;6.22;3.55;;;13.90;92.10;;;;;;5057341;28;20032;-63
2021/11/09 14:24:18;;;;;;;6.93;2.60;;;13.90;92.00;;;;;;5056565;28;20496;-62
2021/11/09 14:27:04;;;;;;;8.77;2.70;;;14.00;92.00;;;;;;5064879;28;20028;-64
2021/11/09 14:29:33;;;;;;;6.55;2.60;;;13.90;91.90;;;;;;5054377;28;20029;-63
2021/11/09 14:32:18;;;;;;;5.65;2.85;;;13.90;91.80;;;;;;5054294;28;20036;-63
2021/11/09 14:34:57;;;;;;;6.90;2.60;;;13.90;91.80;;;;;;5054510;28;20021;-63
2021/11/09 14:37:27;;;;;;;4.93;2.72;;;13.90;91.80;;;;;;5062428;28;20040;-62
2021/11/09 14:40:06;;;;;;;4.80;2.45;;;13.80;91.90;;;;;;5062773;28;20025;-63
2021/11/09 14:42:43;;;;;;;5.18;2.55;;;13.70;91.90;;;;;;5054091;28;20028;-63
2021/11/09 14:45:39;;;;;;;6.95;2.70;;;13.70;91.90;;;;;;5051986;28;20040;-63